sensor_id;sensor_type;location;lat;lon;timestamp;temperature;humidity
13203;DHT22;6666;51.626;7.530;2024-01-07T00:01:49;2.20;99.90
13203;DHT22;6666;51.626;7.530;2024-01-07T00:04:18;2.30;99.90
13203;DHT22;6666;51.626;7.530;2024-01-07T00:06:46;2.20;99.90
13203;DHT22;6666;51.626;7.530;2024-01-07T00:09:16;2.30;99.90
13203;DHT22;6666;51.626;7.530;2024-01-07T00:11:44;2.30;99.90
13203;DHT22;6666;51.626;7.530;2024-01-07T00:14:14;2.30;99.90
13203;DHT22;6666;51.626;7.530;2024-01-07T00:16:42;2.20;99.90
13203;DHT22;6666;51.626;7.530;2024-01-07T00:19:12;2.20;99.90
13203;DHT22;6666;51.626;7.530;2024-01-07T00:21:40;2.30;99.90
13203;DHT22;6666;51.626;7.530;2024-01-07T00:24:09;2.30;99.90
13203;DHT22;6666;51.626;7.530;2024-01-07T00:26:37;2.30;99.90
13203;DHT22;6666;51.626;7.530;2024-01-07T00:29:05;2.40;99.90
13203;DHT22;6666;51.626;7.530;2024-01-07T00:31:33;2.30;99.90
13203;DHT22;6666;51.626;7.530;2024-01-07T00:34:02;2.30;99.90
13203;DHT22;6666;51.626;7.530;2024-01-07T00:36:31;2.30;99.90
13203;DHT22;6666;51.626;7.530;2024-01-07T00:38:59;2.30;99.90
13203;DHT22;6666;51.626;7.530;2024-01-07T00:41:27;2.50;99.90
13203;DHT22;6666;51.626;7.530;2024-01-07T00:43:57;2.50;99.90
13203;DHT22;6666;51.626;7.530;2024-01-07T00:46:25;2.30;99.90
13203;DHT22;6666;51.626;7.530;2024-01-07T00:48:53;2.20;99.90
13203;DHT22;6666;51.626;7.530;2024-01-07T00:51:21;2.40;99.90
13203;DHT22;6666;51.626;7.530;2024-01-07T00:53:51;2.20;99.90
13203;DHT22;6666;51.626;7.530;2024-01-07T00:56:19;2.00;99.90
13203;DHT22;6666;51.626;7.530;2024-01-07T00:58:47;1.90;99.90
13203;DHT22;6666;51.626;7.530;2024-01-07T01:01:15;1.90;99.90
13203;DHT22;6666;51.626;7.530;2024-01-07T01:03:43;2.00;99.90
13203;DHT22;6666;51.626;7.530;2024-01-07T01:06:12;2.00;99.90
13203;DHT22;6666;51.626;7.530;2024-01-07T01:08:40;2.00;99.90
13203;DHT22;6666;51.626;7.530;2024-01-07T01:11:10;2.10;99.90
13203;DHT22;6666;51.626;7.530;2024-01-07T01:13:38;2.10;99.90
13203;DHT22;6666;51.626;7.530;2024-01-07T01:16:07;2.10;99.90
13203;DHT22;6666;51.626;7.530;2024-01-07T01:18:35;2.00;99.90
13203;DHT22;6666;51.626;7.530;2024-01-07T01:21:04;1.90;99.90
13203;DHT22;6666;51.626;7.530;2024-01-07T01:23:32;1.80;99.90
13203;DHT22;6666;51.626;7.530;2024-01-07T01:26:00;1.90;99.90
13203;DHT22;6666;51.626;7.530;2024-01-07T01:28:30;2.00;99.90
13203;DHT22;6666;51.626;7.530;2024-01-07T01:30:58;2.00;99.90
13203;DHT22;6666;51.626;7.530;2024-01-07T01:33:27;2.00;99.90
13203;DHT22;6666;51.626;7.530;2024-01-07T01:35:55;1.80;99.90
13203;DHT22;6666;51.626;7.530;2024-01-07T01:38:23;1.80;99.90
13203;DHT22;6666;51.626;7.530;2024-01-07T01:40:52;1.90;99.90
13203;DHT22;6666;51.626;7.530;2024-01-07T01:43:24;1.80;99.90
13203;DHT22;6666;51.626;7.530;2024-01-07T01:45:53;1.90;99.90
13203;DHT22;6666;51.626;7.530;2024-01-07T01:48:22;1.90;99.90
13203;DHT22;6666;51.626;7.530;2024-01-07T01:50:52;2.00;99.90
13203;DHT22;6666;51.626;7.530;2024-01-07T01:53:22;2.00;99.90
13203;DHT22;6666;51.626;7.530;2024-01-07T01:55:50;2.00;99.90
13203;DHT22;6666;51.626;7.530;2024-01-07T01:58:19;2.00;99.90
13203;DHT22;6666;51.626;7.530;2024-01-07T02:00:48;2.00;99.90
13203;DHT22;6666;51.626;7.530;2024-01-07T02:03:19;1.90;99.90
13203;DHT22;6666;51.626;7.530;2024-01-07T02:05:48;1.90;99.90
13203;DHT22;6666;51.626;7.530;2024-01-07T02:08:17;1.90;99.90
13203;DHT22;6666;51.626;7.530;2024-01-07T02:10:46;2.00;99.90
13203;DHT22;6666;51.626;7.530;2024-01-07T02:13:14;1.90;99.90
13203;DHT22;6666;51.626;7.530;2024-01-07T02:15:43;2.00;99.90
13203;DHT22;6666;51.626;7.530;2024-01-07T02:18:11;2.00;99.90
13203;DHT22;6666;51.626;7.530;2024-01-07T02:20:41;1.90;99.90
13203;DHT22;6666;51.626;7.530;2024-01-07T02:23:09;1.80;99.90
13203;DHT22;6666;51.626;7.530;2024-01-07T02:25:39;1.80;99.90
13203;DHT22;6666;51.626;7.530;2024-01-07T02:28:07;1.70;99.90
13203;DHT22;6666;51.626;7.530;2024-01-07T02:30:35;1.80;99.90
13203;DHT22;6666;51.626;7.530;2024-01-07T02:33:04;1.80;99.90
13203;DHT22;6666;51.626;7.530;2024-01-07T02:35:32;1.90;99.90
13203;DHT22;6666;51.626;7.530;2024-01-07T02:38:00;1.80;99.90
13203;DHT22;6666;51.626;7.530;2024-01-07T02:40:30;1.90;99.90
13203;DHT22;6666;51.626;7.530;2024-01-07T02:42:59;1.70;99.90
13203;DHT22;6666;51.626;7.530;2024-01-07T02:45:29;1.70;99.90
13203;DHT22;6666;51.626;7.530;2024-01-07T02:47:57;1.80;99.90
13203;DHT22;6666;51.626;7.530;2024-01-07T02:50:25;1.70;99.90
13203;DHT22;6666;51.626;7.530;2024-01-07T02:52:53;1.70;99.90
13203;DHT22;6666;51.626;7.530;2024-01-07T02:55:21;1.80;99.90
13203;DHT22;6666;51.626;7.530;2024-01-07T02:57:49;1.70;99.90
13203;DHT22;6666;51.626;7.530;2024-01-07T03:00:19;1.60;99.90
13203;DHT22;6666;51.626;7.530;2024-01-07T03:02:47;1.70;99.90
13203;DHT22;6666;51.626;7.530;2024-01-07T03:05:16;1.60;99.90
13203;DHT22;6666;51.626;7.530;2024-01-07T03:07:44;1.60;99.90
13203;DHT22;6666;51.626;7.530;2024-01-07T03:10:12;1.80;99.90
13203;DHT22;6666;51.626;7.530;2024-01-07T03:12:41;1.60;99.90
13203;DHT22;6666;51.626;7.530;2024-01-07T03:15:09;1.50;99.90
13203;DHT22;6666;51.626;7.530;2024-01-07T03:17:39;1.50;99.90
13203;DHT22;6666;51.626;7.530;2024-01-07T03:20:08;1.60;99.90
13203;DHT22;6666;51.626;7.530;2024-01-07T03:22:36;1.60;99.90
13203;DHT22;6666;51.626;7.530;2024-01-07T03:25:05;1.50;99.90
13203;DHT22;6666;51.626;7.530;2024-01-07T03:27:34;1.60;99.90
13203;DHT22;6666;51.626;7.530;2024-01-07T03:30:02;1.60;99.90
13203;DHT22;6666;51.626;7.530;2024-01-07T03:32:31;1.60;99.90
13203;DHT22;6666;51.626;7.530;2024-01-07T03:35:00;1.70;99.90
13203;DHT22;6666;51.626;7.530;2024-01-07T03:37:29;1.50;99.90
13203;DHT22;6666;51.626;7.530;2024-01-07T03:39:57;1.50;99.90
13203;DHT22;6666;51.626;7.530;2024-01-07T03:42:25;1.50;99.90
13203;DHT22;6666;51.626;7.530;2024-01-07T03:44:53;1.60;99.90
13203;DHT22;6666;51.626;7.530;2024-01-07T03:47:21;1.60;99.90
13203;DHT22;6666;51.626;7.530;2024-01-07T03:49:49;1.60;99.90
13203;DHT22;6666;51.626;7.530;2024-01-07T03:52:19;1.50;99.90
13203;DHT22;6666;51.626;7.530;2024-01-07T03:54:47;1.50;99.90
13203;DHT22;6666;51.626;7.530;2024-01-07T03:57:15;1.40;99.90
13203;DHT22;6666;51.626;7.530;2024-01-07T03:59:43;1.40;99.90
13203;DHT22;6666;51.626;7.530;2024-01-07T04:02:11;1.40;99.90
13203;DHT22;6666;51.626;7.530;2024-01-07T04:04:43;1.40;99.90
13203;DHT22;6666;51.626;7.530;2024-01-07T04:07:11;1.30;99.90
13203;DHT22;6666;51.626;7.530;2024-01-07T04:09:42;1.20;99.90
13203;DHT22;6666;51.626;7.530;2024-01-07T04:12:10;1.40;99.90
13203;DHT22;6666;51.626;7.530;2024-01-07T04:14:39;1.40;99.90
13203;DHT22;6666;51.626;7.530;2024-01-07T04:17:07;1.40;99.90
13203;DHT22;6666;51.626;7.530;2024-01-07T04:19:36;1.30;99.90
13203;DHT22;6666;51.626;7.530;2024-01-07T04:22:05;1.40;99.90
13203;DHT22;6666;51.626;7.530;2024-01-07T04:24:33;1.30;99.90
13203;DHT22;6666;51.626;7.530;2024-01-07T04:27:03;1.30;99.90
13203;DHT22;6666;51.626;7.530;2024-01-07T04:29:31;1.30;99.90
13203;DHT22;6666;51.626;7.530;2024-01-07T04:31:59;1.40;99.90
13203;DHT22;6666;51.626;7.530;2024-01-07T04:34:27;1.30;99.90
13203;DHT22;6666;51.626;7.530;2024-01-07T04:36:56;1.40;99.90
13203;DHT22;6666;51.626;7.530;2024-01-07T04:39:24;1.30;99.90
13203;DHT22;6666;51.626;7.530;2024-01-07T04:41:52;1.40;99.90
13203;DHT22;6666;51.626;7.530;2024-01-07T04:44:22;1.30;99.90
13203;DHT22;6666;51.626;7.530;2024-01-07T04:46:50;1.30;99.90
13203;DHT22;6666;51.626;7.530;2024-01-07T04:49:18;1.40;99.90
13203;DHT22;6666;51.626;7.530;2024-01-07T04:51:46;1.30;99.90
13203;DHT22;6666;51.626;7.530;2024-01-07T04:54:14;1.30;99.90
13203;DHT22;6666;51.626;7.530;2024-01-07T04:56:42;1.20;99.90
13203;DHT22;6666;51.626;7.530;2024-01-07T04:59:10;1.20;99.90
13203;DHT22;6666;51.626;7.530;2024-01-07T05:01:40;1.20;99.90
13203;DHT22;6666;51.626;7.530;2024-01-07T05:04:08;1.20;99.90
13203;DHT22;6666;51.626;7.530;2024-01-07T05:06:37;1.20;99.90
13203;DHT22;6666;51.626;7.530;2024-01-07T05:09:05;1.20;99.90
13203;DHT22;6666;51.626;7.530;2024-01-07T05:11:33;1.30;99.90
13203;DHT22;6666;51.626;7.530;2024-01-07T05:14:06;1.20;99.90
13203;DHT22;6666;51.626;7.530;2024-01-07T05:16:34;1.10;99.90
13203;DHT22;6666;51.626;7.530;2024-01-07T05:19:04;1.10;99.90
13203;DHT22;6666;51.626;7.530;2024-01-07T05:21:32;1.10;99.90
13203;DHT22;6666;51.626;7.530;2024-01-07T05:24:00;1.20;99.90
13203;DHT22;6666;51.626;7.530;2024-01-07T05:26:29;1.20;99.90
13203;DHT22;6666;51.626;7.530;2024-01-07T05:28:57;1.10;99.90
13203;DHT22;6666;51.626;7.530;2024-01-07T05:31:25;1.00;99.90
13203;DHT22;6666;51.626;7.530;2024-01-07T05:33:53;1.10;99.90
13203;DHT22;6666;51.626;7.530;2024-01-07T05:36:32;1.10;99.90
13203;DHT22;6666;51.626;7.530;2024-01-07T05:39:01;1.00;99.90
13203;DHT22;6666;51.626;7.530;2024-01-07T05:41:30;1.10;99.90
13203;DHT22;6666;51.626;7.530;2024-01-07T05:43:58;1.10;99.90
13203;DHT22;6666;51.626;7.530;2024-01-07T05:46:26;1.00;99.90
13203;DHT22;6666;51.626;7.530;2024-01-07T05:48:54;1.00;99.90
13203;DHT22;6666;51.626;7.530;2024-01-07T05:51:23;1.00;99.90
13203;DHT22;6666;51.626;7.530;2024-01-07T05:53:52;1.10;99.90
13203;DHT22;6666;51.626;7.530;2024-01-07T05:56:21;1.00;99.90
13203;DHT22;6666;51.626;7.530;2024-01-07T05:58:49;1.10;99.90
13203;DHT22;6666;51.626;7.530;2024-01-07T06:01:18;0.90;99.90
13203;DHT22;6666;51.626;7.530;2024-01-07T06:03:47;1.00;99.90
13203;DHT22;6666;51.626;7.530;2024-01-07T06:06:16;1.10;99.90
13203;DHT22;6666;51.626;7.530;2024-01-07T06:08:44;1.10;99.90
13203;DHT22;6666;51.626;7.530;2024-01-07T06:11:13;1.20;99.90
13203;DHT22;6666;51.626;7.530;2024-01-07T06:13:45;1.20;99.90
13203;DHT22;6666;51.626;7.530;2024-01-07T06:16:13;1.10;99.90
13203;DHT22;6666;51.626;7.530;2024-01-07T06:18:41;1.00;99.90
13203;DHT22;6666;51.626;7.530;2024-01-07T06:21:09;1.10;99.90
13203;DHT22;6666;51.626;7.530;2024-01-07T06:23:37;1.00;99.90
13203;DHT22;6666;51.626;7.530;2024-01-07T06:26:06;1.40;99.90
13203;DHT22;6666;51.626;7.530;2024-01-07T06:28:36;1.10;99.90
13203;DHT22;6666;51.626;7.530;2024-01-07T06:31:04;1.20;99.90
13203;DHT22;6666;51.626;7.530;2024-01-07T06:33:32;1.20;99.90
13203;DHT22;6666;51.626;7.530;2024-01-07T06:36:01;1.10;99.90
13203;DHT22;6666;51.626;7.530;2024-01-07T06:38:29;1.10;99.90
13203;DHT22;6666;51.626;7.530;2024-01-07T06:40:57;1.00;99.90
13203;DHT22;6666;51.626;7.530;2024-01-07T06:43:28;0.90;99.90
13203;DHT22;6666;51.626;7.530;2024-01-07T06:45:58;0.90;99.90
13203;DHT22;6666;51.626;7.530;2024-01-07T06:48:26;0.70;99.90
13203;DHT22;6666;51.626;7.530;2024-01-07T06:50:54;0.60;99.90
13203;DHT22;6666;51.626;7.530;2024-01-07T06:53:22;0.70;99.90
13203;DHT22;6666;51.626;7.530;2024-01-07T07:04:31;0.60;99.90
13203;DHT22;6666;51.626;7.530;2024-01-07T07:07:00;0.60;99.90
13203;DHT22;6666;51.626;7.530;2024-01-07T07:09:29;0.50;99.90
13203;DHT22;6666;51.626;7.530;2024-01-07T07:11:58;0.60;99.90
13203;DHT22;6666;51.626;7.530;2024-01-07T07:14:27;0.70;99.90
13203;DHT22;6666;51.626;7.530;2024-01-07T07:16:55;0.70;99.90
13203;DHT22;6666;51.626;7.530;2024-01-07T07:19:24;0.70;99.90
13203;DHT22;6666;51.626;7.530;2024-01-07T07:21:55;0.70;99.90
13203;DHT22;6666;51.626;7.530;2024-01-07T07:24:23;0.70;99.90
13203;DHT22;6666;51.626;7.530;2024-01-07T07:26:51;0.70;99.90
13203;DHT22;6666;51.626;7.530;2024-01-07T07:29:20;0.70;99.90
13203;DHT22;6666;51.626;7.530;2024-01-07T07:31:48;0.60;99.90
13203;DHT22;6666;51.626;7.530;2024-01-07T07:34:16;0.50;99.90
13203;DHT22;6666;51.626;7.530;2024-01-07T07:36:45;0.60;99.90
13203;DHT22;6666;51.626;7.530;2024-01-07T07:39:14;0.60;99.90
13203;DHT22;6666;51.626;7.530;2024-01-07T07:41:43;0.60;99.90
13203;DHT22;6666;51.626;7.530;2024-01-07T07:44:11;0.60;99.90
13203;DHT22;6666;51.626;7.530;2024-01-07T07:46:39;0.60;99.90
13203;DHT22;6666;51.626;7.530;2024-01-07T07:49:07;0.60;99.90
13203;DHT22;6666;51.626;7.530;2024-01-07T07:51:36;0.50;99.90
13203;DHT22;6666;51.626;7.530;2024-01-07T07:54:04;0.60;99.90
13203;DHT22;6666;51.626;7.530;2024-01-07T07:56:33;0.60;99.90
13203;DHT22;6666;51.626;7.530;2024-01-07T07:59:02;0.60;99.90
13203;DHT22;6666;51.626;7.530;2024-01-07T08:01:30;0.50;99.90
13203;DHT22;6666;51.626;7.530;2024-01-07T08:03:59;0.60;99.90
13203;DHT22;6666;51.626;7.530;2024-01-07T08:06:27;0.60;99.90
13203;DHT22;6666;51.626;7.530;2024-01-07T08:08:55;0.80;99.90
13203;DHT22;6666;51.626;7.530;2024-01-07T08:11:24;0.60;99.90
13203;DHT22;6666;51.626;7.530;2024-01-07T08:13:53;0.60;99.90
13203;DHT22;6666;51.626;7.530;2024-01-07T08:16:21;0.50;99.90
13203;DHT22;6666;51.626;7.530;2024-01-07T08:18:49;0.50;99.90
13203;DHT22;6666;51.626;7.530;2024-01-07T08:21:18;0.50;99.90
13203;DHT22;6666;51.626;7.530;2024-01-07T08:23:47;0.60;99.90
13203;DHT22;6666;51.626;7.530;2024-01-07T08:26:18;0.50;99.90
13203;DHT22;6666;51.626;7.530;2024-01-07T08:28:46;0.40;99.90
13203;DHT22;6666;51.626;7.530;2024-01-07T08:31:16;0.50;99.90
13203;DHT22;6666;51.626;7.530;2024-01-07T08:33:44;0.50;99.90
13203;DHT22;6666;51.626;7.530;2024-01-07T08:36:12;0.60;99.90
13203;DHT22;6666;51.626;7.530;2024-01-07T08:38:40;0.40;99.90
13203;DHT22;6666;51.626;7.530;2024-01-07T08:41:09;0.40;99.90
13203;DHT22;6666;51.626;7.530;2024-01-07T08:43:37;0.30;99.90
13203;DHT22;6666;51.626;7.530;2024-01-07T08:46:06;0.40;99.90
13203;DHT22;6666;51.626;7.530;2024-01-07T08:48:35;0.40;99.90
13203;DHT22;6666;51.626;7.530;2024-01-07T08:51:04;0.50;99.90
13203;DHT22;6666;51.626;7.530;2024-01-07T08:53:32;0.40;99.90
13203;DHT22;6666;51.626;7.530;2024-01-07T08:56:00;0.40;99.90
13203;DHT22;6666;51.626;7.530;2024-01-07T08:58:29;0.40;99.90
13203;DHT22;6666;51.626;7.530;2024-01-07T09:00:57;0.30;99.90
13203;DHT22;6666;51.626;7.530;2024-01-07T09:03:25;0.30;99.90
13203;DHT22;6666;51.626;7.530;2024-01-07T09:05:55;0.30;99.90
13203;DHT22;6666;51.626;7.530;2024-01-07T09:08:23;0.40;99.90
13203;DHT22;6666;51.626;7.530;2024-01-07T09:10:50;0.50;99.90
13203;DHT22;6666;51.626;7.530;2024-01-07T09:13:19;0.40;99.90
13203;DHT22;6666;51.626;7.530;2024-01-07T09:15:47;0.40;99.90
13203;DHT22;6666;51.626;7.530;2024-01-07T09:18:15;0.40;99.90
13203;DHT22;6666;51.626;7.530;2024-01-07T09:20:43;0.40;99.90
13203;DHT22;6666;51.626;7.530;2024-01-07T09:23:13;0.30;99.90
13203;DHT22;6666;51.626;7.530;2024-01-07T09:25:42;0.40;99.90
13203;DHT22;6666;51.626;7.530;2024-01-07T09:28:10;0.40;99.90
13203;DHT22;6666;51.626;7.530;2024-01-07T09:30:38;0.40;99.90
13203;DHT22;6666;51.626;7.530;2024-01-07T09:33:07;0.40;99.90
13203;DHT22;6666;51.626;7.530;2024-01-07T09:35:35;0.50;99.90
13203;DHT22;6666;51.626;7.530;2024-01-07T09:38:03;0.40;99.90
13203;DHT22;6666;51.626;7.530;2024-01-07T09:40:40;0.40;99.90
13203;DHT22;6666;51.626;7.530;2024-01-07T09:43:08;0.50;99.90
13203;DHT22;6666;51.626;7.530;2024-01-07T09:45:36;0.40;99.90
13203;DHT22;6666;51.626;7.530;2024-01-07T09:48:06;0.50;99.90
13203;DHT22;6666;51.626;7.530;2024-01-07T09:50:34;0.50;99.90
13203;DHT22;6666;51.626;7.530;2024-01-07T09:53:03;0.50;99.90
13203;DHT22;6666;51.626;7.530;2024-01-07T09:55:37;0.30;99.90
13203;DHT22;6666;51.626;7.530;2024-01-07T09:58:09;0.40;99.90
13203;DHT22;6666;51.626;7.530;2024-01-07T10:00:38;0.40;99.90
13203;DHT22;6666;51.626;7.530;2024-01-07T10:03:07;0.40;99.90
13203;DHT22;6666;51.626;7.530;2024-01-07T10:05:35;0.40;99.90
13203;DHT22;6666;51.626;7.530;2024-01-07T10:08:03;0.50;99.90
13203;DHT22;6666;51.626;7.530;2024-01-07T10:10:33;0.40;99.90
13203;DHT22;6666;51.626;7.530;2024-01-07T10:13:02;0.40;99.90
13203;DHT22;6666;51.626;7.530;2024-01-07T10:15:33;0.50;99.90
13203;DHT22;6666;51.626;7.530;2024-01-07T10:18:05;0.40;99.90
13203;DHT22;6666;51.626;7.530;2024-01-07T10:20:34;0.50;99.90
13203;DHT22;6666;51.626;7.530;2024-01-07T10:23:02;0.50;99.90
13203;DHT22;6666;51.626;7.530;2024-01-07T10:25:30;0.50;99.90
13203;DHT22;6666;51.626;7.530;2024-01-07T10:27:59;0.50;99.90
13203;DHT22;6666;51.626;7.530;2024-01-07T10:30:28;0.50;99.90
13203;DHT22;6666;51.626;7.530;2024-01-07T10:32:59;0.50;99.90
13203;DHT22;6666;51.626;7.530;2024-01-07T10:35:29;0.60;99.90
13203;DHT22;6666;51.626;7.530;2024-01-07T10:38:00;0.60;99.90
13203;DHT22;6666;51.626;7.530;2024-01-07T10:40:30;0.40;99.90
13203;DHT22;6666;51.626;7.530;2024-01-07T10:42:59;0.50;99.90
13203;DHT22;6666;51.626;7.530;2024-01-07T10:45:28;0.50;99.90
13203;DHT22;6666;51.626;7.530;2024-01-07T10:47:59;0.50;99.90
13203;DHT22;6666;51.626;7.530;2024-01-07T10:50:33;0.50;99.90
13203;DHT22;6666;51.626;7.530;2024-01-07T10:53:04;0.50;99.90
13203;DHT22;6666;51.626;7.530;2024-01-07T10:55:34;0.60;99.90
13203;DHT22;6666;51.626;7.530;2024-01-07T10:58:04;0.40;99.90
13203;DHT22;6666;51.626;7.530;2024-01-07T11:00:33;0.30;99.90
13203;DHT22;6666;51.626;7.530;2024-01-07T11:03:07;0.40;99.90
13203;DHT22;6666;51.626;7.530;2024-01-07T11:05:42;0.50;99.90
13203;DHT22;6666;51.626;7.530;2024-01-07T11:08:18;0.50;99.90
13203;DHT22;6666;51.626;7.530;2024-01-07T11:10:50;0.30;99.90
13203;DHT22;6666;51.626;7.530;2024-01-07T11:13:34;0.20;99.90
13203;DHT22;6666;51.626;7.530;2024-01-07T11:16:04;0.20;99.90
13203;DHT22;6666;51.626;7.530;2024-01-07T11:18:40;0.20;99.90
13203;DHT22;6666;51.626;7.530;2024-01-07T11:21:20;0.20;99.90
13203;DHT22;6666;51.626;7.530;2024-01-07T11:23:48;0.30;99.90
13203;DHT22;6666;51.626;7.530;2024-01-07T11:26:16;0.20;99.90
13203;DHT22;6666;51.626;7.530;2024-01-07T11:28:50;0.30;99.90
13203;DHT22;6666;51.626;7.530;2024-01-07T11:31:19;0.40;99.90
13203;DHT22;6666;51.626;7.530;2024-01-07T11:33:50;0.40;99.90
13203;DHT22;6666;51.626;7.530;2024-01-07T11:36:18;0.30;99.90
13203;DHT22;6666;51.626;7.530;2024-01-07T11:38:48;0.20;99.90
13203;DHT22;6666;51.626;7.530;2024-01-07T11:41:21;0.20;99.90
13203;DHT22;6666;51.626;7.530;2024-01-07T11:43:53;0.20;99.90
13203;DHT22;6666;51.626;7.530;2024-01-07T11:46:22;0.20;99.90
13203;DHT22;6666;51.626;7.530;2024-01-07T11:48:54;0.20;99.90
13203;DHT22;6666;51.626;7.530;2024-01-07T11:51:26;0.30;99.90
13203;DHT22;6666;51.626;7.530;2024-01-07T11:53:54;0.30;99.90
13203;DHT22;6666;51.626;7.530;2024-01-07T11:56:22;0.30;99.90
13203;DHT22;6666;51.626;7.530;2024-01-07T11:58:51;0.20;99.90
13203;DHT22;6666;51.626;7.530;2024-01-07T12:01:19;0.30;99.90
13203;DHT22;6666;51.626;7.530;2024-01-07T12:03:48;0.20;99.90
13203;DHT22;6666;51.626;7.530;2024-01-07T12:06:19;0.20;99.90
13203;DHT22;6666;51.626;7.530;2024-01-07T12:08:47;0.30;99.90
13203;DHT22;6666;51.626;7.530;2024-01-07T12:11:16;0.20;99.90
13203;DHT22;6666;51.626;7.530;2024-01-07T12:13:44;0.30;99.90
13203;DHT22;6666;51.626;7.530;2024-01-07T12:16:12;0.30;99.90
13203;DHT22;6666;51.626;7.530;2024-01-07T12:18:41;0.50;99.90
13203;DHT22;6666;51.626;7.530;2024-01-07T12:21:09;0.30;99.90
13203;DHT22;6666;51.626;7.530;2024-01-07T12:23:39;0.30;99.90
13203;DHT22;6666;51.626;7.530;2024-01-07T12:26:11;0.40;99.90
13203;DHT22;6666;51.626;7.530;2024-01-07T12:28:39;0.40;99.90
13203;DHT22;6666;51.626;7.530;2024-01-07T12:31:07;0.40;99.90
13203;DHT22;6666;51.626;7.530;2024-01-07T12:33:37;0.30;99.90
13203;DHT22;6666;51.626;7.530;2024-01-07T12:36:07;0.30;99.90
13203;DHT22;6666;51.626;7.530;2024-01-07T12:38:37;0.20;99.90
13203;DHT22;6666;51.626;7.530;2024-01-07T12:41:07;0.30;99.90
13203;DHT22;6666;51.626;7.530;2024-01-07T12:43:36;0.30;99.90
13203;DHT22;6666;51.626;7.530;2024-01-07T12:46:04;0.20;99.90
13203;DHT22;6666;51.626;7.530;2024-01-07T12:48:33;0.30;99.90
13203;DHT22;6666;51.626;7.530;2024-01-07T12:51:01;0.40;99.90
13203;DHT22;6666;51.626;7.530;2024-01-07T12:53:30;0.40;99.90
13203;DHT22;6666;51.626;7.530;2024-01-07T12:55:58;0.30;99.90
13203;DHT22;6666;51.626;7.530;2024-01-07T12:58:27;0.30;99.90
13203;DHT22;6666;51.626;7.530;2024-01-07T13:00:56;0.30;99.90
13203;DHT22;6666;51.626;7.530;2024-01-07T13:03:24;0.40;99.90
13203;DHT22;6666;51.626;7.530;2024-01-07T13:05:52;0.40;99.90
13203;DHT22;6666;51.626;7.530;2024-01-07T13:08:20;0.50;99.90
13203;DHT22;6666;51.626;7.530;2024-01-07T13:10:49;0.30;99.90
13203;DHT22;6666;51.626;7.530;2024-01-07T13:13:17;0.30;99.90
13203;DHT22;6666;51.626;7.530;2024-01-07T13:15:47;0.40;99.90
13203;DHT22;6666;51.626;7.530;2024-01-07T13:18:17;0.40;99.90
13203;DHT22;6666;51.626;7.530;2024-01-07T13:20:46;0.40;99.90
13203;DHT22;6666;51.626;7.530;2024-01-07T13:23:14;0.60;99.90
13203;DHT22;6666;51.626;7.530;2024-01-07T13:25:42;0.50;99.90
13203;DHT22;6666;51.626;7.530;2024-01-07T13:28:11;0.50;99.90
13203;DHT22;6666;51.626;7.530;2024-01-07T13:30:39;0.50;99.90
13203;DHT22;6666;51.626;7.530;2024-01-07T13:33:10;0.50;99.90
13203;DHT22;6666;51.626;7.530;2024-01-07T13:35:39;0.50;99.90
13203;DHT22;6666;51.626;7.530;2024-01-07T13:38:07;0.40;99.90
13203;DHT22;6666;51.626;7.530;2024-01-07T13:40:36;0.50;99.90
13203;DHT22;6666;51.626;7.530;2024-01-07T13:43:04;0.50;99.90
13203;DHT22;6666;51.626;7.530;2024-01-07T13:45:32;0.50;99.90
13203;DHT22;6666;51.626;7.530;2024-01-07T13:48:00;0.50;99.90
13203;DHT22;6666;51.626;7.530;2024-01-07T13:50:31;0.60;99.90
13203;DHT22;6666;51.626;7.530;2024-01-07T13:53:00;0.70;99.90
13203;DHT22;6666;51.626;7.530;2024-01-07T13:55:28;0.70;99.90
13203;DHT22;6666;51.626;7.530;2024-01-07T13:57:56;0.50;99.90
13203;DHT22;6666;51.626;7.530;2024-01-07T14:00:26;0.50;99.90
13203;DHT22;6666;51.626;7.530;2024-01-07T14:02:54;0.40;99.90
13203;DHT22;6666;51.626;7.530;2024-01-07T14:05:22;0.60;99.90
13203;DHT22;6666;51.626;7.530;2024-01-07T14:07:52;0.60;99.90
13203;DHT22;6666;51.626;7.530;2024-01-07T14:10:20;0.60;99.90
13203;DHT22;6666;51.626;7.530;2024-01-07T14:12:48;0.50;99.90
13203;DHT22;6666;51.626;7.530;2024-01-07T14:15:17;0.60;99.90
13203;DHT22;6666;51.626;7.530;2024-01-07T14:17:45;0.60;99.90
13203;DHT22;6666;51.626;7.530;2024-01-07T14:20:13;0.60;99.90
13203;DHT22;6666;51.626;7.530;2024-01-07T14:22:42;0.50;99.90
13203;DHT22;6666;51.626;7.530;2024-01-07T14:25:11;0.50;99.90
13203;DHT22;6666;51.626;7.530;2024-01-07T14:27:41;0.60;99.90
13203;DHT22;6666;51.626;7.530;2024-01-07T14:30:11;0.60;99.90
13203;DHT22;6666;51.626;7.530;2024-01-07T14:32:40;0.50;99.90
13203;DHT22;6666;51.626;7.530;2024-01-07T14:35:09;0.60;99.90
13203;DHT22;6666;51.626;7.530;2024-01-07T14:37:37;0.50;99.90
13203;DHT22;6666;51.626;7.530;2024-01-07T14:40:07;0.50;99.90
13203;DHT22;6666;51.626;7.530;2024-01-07T14:42:37;0.60;99.90
13203;DHT22;6666;51.626;7.530;2024-01-07T14:45:06;0.50;99.90
13203;DHT22;6666;51.626;7.530;2024-01-07T14:47:35;0.60;99.90
13203;DHT22;6666;51.626;7.530;2024-01-07T14:50:04;0.60;99.90
13203;DHT22;6666;51.626;7.530;2024-01-07T14:52:34;0.60;99.90
13203;DHT22;6666;51.626;7.530;2024-01-07T14:55:03;0.60;99.90
13203;DHT22;6666;51.626;7.530;2024-01-07T14:57:31;0.80;99.90
13203;DHT22;6666;51.626;7.530;2024-01-07T15:00:00;0.60;99.90
13203;DHT22;6666;51.626;7.530;2024-01-07T15:02:29;0.50;99.90
13203;DHT22;6666;51.626;7.530;2024-01-07T15:04:57;0.50;99.90
13203;DHT22;6666;51.626;7.530;2024-01-07T15:07:26;0.60;99.90
13203;DHT22;6666;51.626;7.530;2024-01-07T15:09:54;0.60;99.90
13203;DHT22;6666;51.626;7.530;2024-01-07T15:12:22;0.60;99.90
13203;DHT22;6666;51.626;7.530;2024-01-07T15:14:50;0.60;99.90
13203;DHT22;6666;51.626;7.530;2024-01-07T15:17:20;0.60;99.90
13203;DHT22;6666;51.626;7.530;2024-01-07T15:19:49;0.50;99.90
13203;DHT22;6666;51.626;7.530;2024-01-07T15:22:17;0.50;99.90
13203;DHT22;6666;51.626;7.530;2024-01-07T15:24:45;0.40;99.90
13203;DHT22;6666;51.626;7.530;2024-01-07T15:27:13;0.40;99.90
13203;DHT22;6666;51.626;7.530;2024-01-07T15:29:41;0.40;99.90
13203;DHT22;6666;51.626;7.530;2024-01-07T15:32:09;0.40;99.90
13203;DHT22;6666;51.626;7.530;2024-01-07T15:34:40;0.30;99.90
13203;DHT22;6666;51.626;7.530;2024-01-07T15:37:08;0.40;99.90
13203;DHT22;6666;51.626;7.530;2024-01-07T15:39:36;0.50;99.90
13203;DHT22;6666;51.626;7.530;2024-01-07T15:42:05;0.40;99.90
13203;DHT22;6666;51.626;7.530;2024-01-07T15:44:33;0.40;99.90
13203;DHT22;6666;51.626;7.530;2024-01-07T15:47:02;0.40;99.90
13203;DHT22;6666;51.626;7.530;2024-01-07T15:49:30;0.40;99.90
13203;DHT22;6666;51.626;7.530;2024-01-07T15:52:00;0.40;99.90
13203;DHT22;6666;51.626;7.530;2024-01-07T15:54:28;0.40;99.90
13203;DHT22;6666;51.626;7.530;2024-01-07T15:56:56;0.40;99.90
13203;DHT22;6666;51.626;7.530;2024-01-07T15:59:24;0.40;99.90
13203;DHT22;6666;51.626;7.530;2024-01-07T16:01:53;0.50;99.90
13203;DHT22;6666;51.626;7.530;2024-01-07T16:04:22;0.40;99.90
13203;DHT22;6666;51.626;7.530;2024-01-07T16:06:51;0.40;99.90
13203;DHT22;6666;51.626;7.530;2024-01-07T16:09:20;0.40;99.90
13203;DHT22;6666;51.626;7.530;2024-01-07T16:11:49;0.40;99.90
13203;DHT22;6666;51.626;7.530;2024-01-07T16:14:18;0.40;99.90
13203;DHT22;6666;51.626;7.530;2024-01-07T16:16:51;0.50;99.90
13203;DHT22;6666;51.626;7.530;2024-01-07T16:19:20;0.40;99.90
13203;DHT22;6666;51.626;7.530;2024-01-07T16:21:48;0.50;99.90